Weather at Aji Pangeran Tumenggung Pranoto International Airport

Public forecast

Using degrees Celsius for public forecast. Weather courtesy of forecast.io.

Closest aviation weather report (METAR) to Aji Pangeran Tumenggung Pranoto International Airport

Report is more than 6 hours old.

Closest report is Sultan Aji Muhammad Sulaiman Sepinggan International Airport, 57.8 nm (107.0 km) SSW.

2022/11/14 15:00 (retrieved 2 years ago)

WALL 141500Z 30006KT 7000 -TSRA FEW018CB BKN018 26/24 Q1009RMK CB TO NW

Aviation forecast (TAF) for Aji Pangeran Tumenggung Pranoto International Airport

Forecast is more than 12 hours old.

2023/02/22 18:00 (retrieved 1 year ago)

TAF WALL 221700Z 2218/2324 32003KT 9000 SCT020 TAF WALS 221700Z 2218/2306 27001KT 8000 SCT017 TEMPO 2221/2224 5000 BR